sensor_id;sensor_type;location;lat;lon;timestamp;temperature;humidity
20957;DHT22;10637;47.970;7.830;2023-06-26T00:03:40;21.40;98.40
20957;DHT22;10637;47.970;7.830;2023-06-26T00:08:41;21.30;98.50
20957;DHT22;10637;47.970;7.830;2023-06-26T00:13:44;21.40;99.20
20957;DHT22;10637;47.970;7.830;2023-06-26T00:18:46;21.20;99.90
20957;DHT22;10637;47.970;7.830;2023-06-26T00:23:48;21.00;99.90
20957;DHT22;10637;47.970;7.830;2023-06-26T00:28:50;20.90;99.90
20957;DHT22;10637;47.970;7.830;2023-06-26T00:33:51;21.10;99.90
20957;DHT22;10637;47.970;7.830;2023-06-26T00:38:53;21.00;99.90
20957;DHT22;10637;47.970;7.830;2023-06-26T00:43:55;21.10;99.90
20957;DHT22;10637;47.970;7.830;2023-06-26T00:48:59;21.10;99.90
20957;DHT22;10637;47.970;7.830;2023-06-26T00:54:01;20.90;99.90
20957;DHT22;10637;47.970;7.830;2023-06-26T00:59:03;20.80;99.90
20957;DHT22;10637;47.970;7.830;2023-06-26T01:04:05;20.90;99.90
20957;DHT22;10637;47.970;7.830;2023-06-26T01:09:07;20.80;99.90
20957;DHT22;10637;47.970;7.830;2023-06-26T01:14:09;20.70;99.90
20957;DHT22;10637;47.970;7.830;2023-06-26T01:19:17;20.70;99.90
20957;DHT22;10637;47.970;7.830;2023-06-26T01:24:33;20.70;99.90
20957;DHT22;10637;47.970;7.830;2023-06-26T01:29:35;20.70;99.90
20957;DHT22;10637;47.970;7.830;2023-06-26T01:34:37;20.70;99.90
20957;DHT22;10637;47.970;7.830;2023-06-26T01:39:39;20.80;99.90
20957;DHT22;10637;47.970;7.830;2023-06-26T01:44:45;21.00;99.90
20957;DHT22;10637;47.970;7.830;2023-06-26T01:49:58;20.80;99.90
20957;DHT22;10637;47.970;7.830;2023-06-26T02:00:21;20.60;99.90
20957;DHT22;10637;47.970;7.830;2023-06-26T02:05:24;20.40;99.90
20957;DHT22;10637;47.970;7.830;2023-06-26T02:10:26;20.30;99.90
20957;DHT22;10637;47.970;7.830;2023-06-26T02:15:28;20.50;99.90
20957;DHT22;10637;47.970;7.830;2023-06-26T02:20:30;20.20;99.90
20957;DHT22;10637;47.970;7.830;2023-06-26T02:25:31;20.20;99.90
20957;DHT22;10637;47.970;7.830;2023-06-26T02:30:33;20.40;99.90
20957;DHT22;10637;47.970;7.830;2023-06-26T02:35:35;20.50;99.90
20957;DHT22;10637;47.970;7.830;2023-06-26T02:40:37;20.30;99.90
20957;DHT22;10637;47.970;7.830;2023-06-26T02:45:39;20.20;99.90
20957;DHT22;10637;47.970;7.830;2023-06-26T02:50:41;20.40;99.90
20957;DHT22;10637;47.970;7.830;2023-06-26T02:55:43;20.30;99.90
20957;DHT22;10637;47.970;7.830;2023-06-26T03:00:45;20.10;99.90
20957;DHT22;10637;47.970;7.830;2023-06-26T03:05:46;20.00;99.90
20957;DHT22;10637;47.970;7.830;2023-06-26T03:10:48;20.10;99.90
20957;DHT22;10637;47.970;7.830;2023-06-26T03:15:50;20.30;99.90
20957;DHT22;10637;47.970;7.830;2023-06-26T03:20:52;20.00;99.90
20957;DHT22;10637;47.970;7.830;2023-06-26T03:25:55;20.00;99.90
20957;DHT22;10637;47.970;7.830;2023-06-26T03:30:57;20.10;99.90
20957;DHT22;10637;47.970;7.830;2023-06-26T03:35:59;19.90;99.90
20957;DHT22;10637;47.970;7.830;2023-06-26T03:41:01;20.20;99.90
20957;DHT22;10637;47.970;7.830;2023-06-26T03:46:03;20.10;99.90
20957;DHT22;10637;47.970;7.830;2023-06-26T03:51:05;20.20;99.90
20957;DHT22;10637;47.970;7.830;2023-06-26T03:56:08;19.90;99.90
20957;DHT22;10637;47.970;7.830;2023-06-26T04:01:10;19.80;99.90
20957;DHT22;10637;47.970;7.830;2023-06-26T04:06:11;20.00;99.90
20957;DHT22;10637;47.970;7.830;2023-06-26T04:11:13;19.90;99.90
20957;DHT22;10637;47.970;7.830;2023-06-26T04:16:15;19.90;99.90
20957;DHT22;10637;47.970;7.830;2023-06-26T04:21:17;20.10;99.90
20957;DHT22;10637;47.970;7.830;2023-06-26T04:26:19;20.40;99.90
20957;DHT22;10637;47.970;7.830;2023-06-26T04:31:21;21.00;99.90
20957;DHT22;10637;47.970;7.830;2023-06-26T04:36:23;21.00;99.90
20957;DHT22;10637;47.970;7.830;2023-06-26T04:41:30;21.10;99.90
20957;DHT22;10637;47.970;7.830;2023-06-26T04:46:31;21.20;99.90
20957;DHT22;10637;47.970;7.830;2023-06-26T04:51:33;21.50;99.90
20957;DHT22;10637;47.970;7.830;2023-06-26T04:56:35;21.80;99.90
20957;DHT22;10637;47.970;7.830;2023-06-26T05:01:37;22.10;99.90
20957;DHT22;10637;47.970;7.830;2023-06-26T05:06:41;22.40;99.90
20957;DHT22;10637;47.970;7.830;2023-06-26T05:11:43;22.80;99.90
20957;DHT22;10637;47.970;7.830;2023-06-26T05:16:45;23.00;99.90
20957;DHT22;10637;47.970;7.830;2023-06-26T05:21:47;23.10;99.90
20957;DHT22;10637;47.970;7.830;2023-06-26T05:26:50;23.30;99.90
20957;DHT22;10637;47.970;7.830;2023-06-26T05:31:53;23.30;99.90
20957;DHT22;10637;47.970;7.830;2023-06-26T05:36:58;23.60;99.90
20957;DHT22;10637;47.970;7.830;2023-06-26T05:42:00;23.70;99.90
20957;DHT22;10637;47.970;7.830;2023-06-26T05:47:02;24.00;99.90
20957;DHT22;10637;47.970;7.830;2023-06-26T05:52:04;24.30;99.90
20957;DHT22;10637;47.970;7.830;2023-06-26T05:57:06;24.60;99.90
20957;DHT22;10637;47.970;7.830;2023-06-26T06:02:08;24.80;99.90
20957;DHT22;10637;47.970;7.830;2023-06-26T06:07:11;25.00;99.90
20957;DHT22;10637;47.970;7.830;2023-06-26T06:12:13;25.20;99.90
20957;DHT22;10637;47.970;7.830;2023-06-26T06:17:15;25.30;99.90
20957;DHT22;10637;47.970;7.830;2023-06-26T06:22:17;25.40;99.90
20957;DHT22;10637;47.970;7.830;2023-06-26T06:27:19;25.50;99.90
20957;DHT22;10637;47.970;7.830;2023-06-26T06:32:21;25.80;99.90
20957;DHT22;10637;47.970;7.830;2023-06-26T06:37:23;26.00;99.90
20957;DHT22;10637;47.970;7.830;2023-06-26T06:42:25;26.10;99.90
20957;DHT22;10637;47.970;7.830;2023-06-26T06:47:26;26.20;99.90
20957;DHT22;10637;47.970;7.830;2023-06-26T06:52:28;26.20;99.90
20957;DHT22;10637;47.970;7.830;2023-06-26T06:57:30;26.40;99.90
20957;DHT22;10637;47.970;7.830;2023-06-26T07:02:32;26.70;99.90
20957;DHT22;10637;47.970;7.830;2023-06-26T07:07:35;26.70;99.50
20957;DHT22;10637;47.970;7.830;2023-06-26T07:12:37;27.00;98.70
20957;DHT22;10637;47.970;7.830;2023-06-26T07:17:42;26.80;98.80
20957;DHT22;10637;47.970;7.830;2023-06-26T07:22:44;26.90;98.80
20957;DHT22;10637;47.970;7.830;2023-06-26T07:27:46;26.80;98.90
20957;DHT22;10637;47.970;7.830;2023-06-26T07:32:48;27.00;99.00
20957;DHT22;10637;47.970;7.830;2023-06-26T07:37:50;27.30;98.00
20957;DHT22;10637;47.970;7.830;2023-06-26T07:42:52;27.40;98.20
20957;DHT22;10637;47.970;7.830;2023-06-26T07:47:55;27.30;98.20
20957;DHT22;10637;47.970;7.830;2023-06-26T07:52:57;27.50;98.10
20957;DHT22;10637;47.970;7.830;2023-06-26T07:57:59;27.60;98.00
20957;DHT22;10637;47.970;7.830;2023-06-26T08:03:00;27.80;97.50
20957;DHT22;10637;47.970;7.830;2023-06-26T08:08:03;28.20;97.70
20957;DHT22;10637;47.970;7.830;2023-06-26T08:13:05;28.40;96.80
20957;DHT22;10637;47.970;7.830;2023-06-26T08:18:10;28.60;97.10
20957;DHT22;10637;47.970;7.830;2023-06-26T08:23:12;28.60;96.40
20957;DHT22;10637;47.970;7.830;2023-06-26T08:28:14;28.60;95.10
20957;DHT22;10637;47.970;7.830;2023-06-26T08:33:16;28.90;96.30
20957;DHT22;10637;47.970;7.830;2023-06-26T08:38:17;29.10;95.40
20957;DHT22;10637;47.970;7.830;2023-06-26T08:43:22;29.30;95.80
20957;DHT22;10637;47.970;7.830;2023-06-26T08:48:24;29.80;95.50
20957;DHT22;10637;47.970;7.830;2023-06-26T08:53:40;29.70;94.30
20957;DHT22;10637;47.970;7.830;2023-06-26T08:58:45;29.90;94.40
20957;DHT22;10637;47.970;7.830;2023-06-26T09:03:47;29.80;94.80
20957;DHT22;10637;47.970;7.830;2023-06-26T09:08:49;29.70;94.80
20957;DHT22;10637;47.970;7.830;2023-06-26T09:13:52;29.80;94.00
20957;DHT22;10637;47.970;7.830;2023-06-26T09:18:56;30.00;94.10
20957;DHT22;10637;47.970;7.830;2023-06-26T09:23:58;30.30;93.50
20957;DHT22;10637;47.970;7.830;2023-06-26T09:29:00;30.50;93.10
20957;DHT22;10637;47.970;7.830;2023-06-26T09:34:02;30.40;93.50
20957;DHT22;10637;47.970;7.830;2023-06-26T09:39:08;29.70;94.80
20957;DHT22;10637;47.970;7.830;2023-06-26T09:44:14;29.80;94.40
20957;DHT22;10637;47.970;7.830;2023-06-26T09:49:16;28.80;95.90
20957;DHT22;10637;47.970;7.830;2023-06-26T09:54:18;28.80;96.80
20957;DHT22;10637;47.970;7.830;2023-06-26T09:59:23;28.80;96.80
20957;DHT22;10637;47.970;7.830;2023-06-26T10:04:25;29.20;96.60
20957;DHT22;10637;47.970;7.830;2023-06-26T10:09:27;29.20;96.00
20957;DHT22;10637;47.970;7.830;2023-06-26T10:14:41;29.20;96.60
20957;DHT22;10637;47.970;7.830;2023-06-26T10:19:48;29.70;94.90
20957;DHT22;10637;47.970;7.830;2023-06-26T10:24:51;29.80;94.80
20957;DHT22;10637;47.970;7.830;2023-06-26T10:30:00;29.60;95.00
20957;DHT22;10637;47.970;7.830;2023-06-26T10:35:06;30.20;95.40
20957;DHT22;10637;47.970;7.830;2023-06-26T10:40:08;29.60;95.70
20957;DHT22;10637;47.970;7.830;2023-06-26T10:45:18;30.20;95.40
20957;DHT22;10637;47.970;7.830;2023-06-26T10:55:28;30.40;95.70
20957;DHT22;10637;47.970;7.830;2023-06-26T11:00:30;30.10;95.70
20957;DHT22;10637;47.970;7.830;2023-06-26T11:05:33;30.40;94.00
20957;DHT22;10637;47.970;7.830;2023-06-26T11:10:54;30.80;94.80
20957;DHT22;10637;47.970;7.830;2023-06-26T11:16:01;29.80;96.40
20957;DHT22;10637;47.970;7.830;2023-06-26T11:21:07;29.60;97.50
20957;DHT22;10637;47.970;7.830;2023-06-26T11:26:16;29.30;98.20
20957;DHT22;10637;47.970;7.830;2023-06-26T11:31:29;29.40;97.90
20957;DHT22;10637;47.970;7.830;2023-06-26T11:36:32;30.20;97.30
20957;DHT22;10637;47.970;7.830;2023-06-26T11:41:35;31.70;95.20
20957;DHT22;10637;47.970;7.830;2023-06-26T11:46:38;32.40;93.30
20957;DHT22;10637;47.970;7.830;2023-06-26T11:51:40;32.80;92.10
20957;DHT22;10637;47.970;7.830;2023-06-26T11:56:42;32.60;92.70
20957;DHT22;10637;47.970;7.830;2023-06-26T12:01:44;32.00;93.10
20957;DHT22;10637;47.970;7.830;2023-06-26T12:06:50;32.10;93.30
20957;DHT22;10637;47.970;7.830;2023-06-26T12:11:54;32.50;92.40
20957;DHT22;10637;47.970;7.830;2023-06-26T12:16:56;32.90;92.90
20957;DHT22;10637;47.970;7.830;2023-06-26T12:22:08;32.50;92.30
20957;DHT22;10637;47.970;7.830;2023-06-26T12:27:13;32.00;92.40
20957;DHT22;10637;47.970;7.830;2023-06-26T12:32:15;31.70;92.80
20957;DHT22;10637;47.970;7.830;2023-06-26T12:37:17;31.70;92.00
20957;DHT22;10637;47.970;7.830;2023-06-26T12:42:24;31.70;92.60
20957;DHT22;10637;47.970;7.830;2023-06-26T12:47:27;31.30;92.90
20957;DHT22;10637;47.970;7.830;2023-06-26T12:52:30;31.10;92.60
20957;DHT22;10637;47.970;7.830;2023-06-26T12:57:32;30.50;94.00
20957;DHT22;10637;47.970;7.830;2023-06-26T13:02:34;30.10;94.50
20957;DHT22;10637;47.970;7.830;2023-06-26T13:07:37;29.60;94.40
20957;DHT22;10637;47.970;7.830;2023-06-26T13:12:39;29.80;94.90
20957;DHT22;10637;47.970;7.830;2023-06-26T13:17:40;30.20;95.20
20957;DHT22;10637;47.970;7.830;2023-06-26T13:22:42;30.80;93.90
20957;DHT22;10637;47.970;7.830;2023-06-26T13:27:44;31.20;93.80
20957;DHT22;10637;47.970;7.830;2023-06-26T13:32:46;31.80;93.80
20957;DHT22;10637;47.970;7.830;2023-06-26T13:37:48;32.30;92.10
20957;DHT22;10637;47.970;7.830;2023-06-26T13:42:49;32.40;90.90
20957;DHT22;10637;47.970;7.830;2023-06-26T13:47:52;32.30;90.70
20957;DHT22;10637;47.970;7.830;2023-06-26T13:52:54;32.10;91.00
20957;DHT22;10637;47.970;7.830;2023-06-26T13:57:56;32.30;91.20
20957;DHT22;10637;47.970;7.830;2023-06-26T14:02:57;32.30;90.90
20957;DHT22;10637;47.970;7.830;2023-06-26T14:08:01;32.20;90.40
20957;DHT22;10637;47.970;7.830;2023-06-26T14:13:04;32.70;91.10
20957;DHT22;10637;47.970;7.830;2023-06-26T14:18:06;33.10;90.30
20957;DHT22;10637;47.970;7.830;2023-06-26T14:23:08;33.10;87.30
20957;DHT22;10637;47.970;7.830;2023-06-26T14:28:09;33.30;89.40
20957;DHT22;10637;47.970;7.830;2023-06-26T14:33:11;33.70;86.60
20957;DHT22;10637;47.970;7.830;2023-06-26T14:38:13;33.60;87.80
20957;DHT22;10637;47.970;7.830;2023-06-26T14:43:15;33.60;83.70
20957;DHT22;10637;47.970;7.830;2023-06-26T14:48:17;33.30;83.00
20957;DHT22;10637;47.970;7.830;2023-06-26T14:53:20;33.10;84.50
20957;DHT22;10637;47.970;7.830;2023-06-26T14:58:22;33.00;84.40
20957;DHT22;10637;47.970;7.830;2023-06-26T15:03:24;33.10;83.40
20957;DHT22;10637;47.970;7.830;2023-06-26T15:08:26;32.70;82.80
20957;DHT22;10637;47.970;7.830;2023-06-26T15:13:29;32.50;83.40
20957;DHT22;10637;47.970;7.830;2023-06-26T15:18:30;32.50;84.30
20957;DHT22;10637;47.970;7.830;2023-06-26T15:23:33;33.10;83.30
20957;DHT22;10637;47.970;7.830;2023-06-26T15:28:35;33.00;80.40
20957;DHT22;10637;47.970;7.830;2023-06-26T15:33:37;32.50;82.20
20957;DHT22;10637;47.970;7.830;2023-06-26T15:38:38;32.40;81.70
20957;DHT22;10637;47.970;7.830;2023-06-26T15:43:40;32.00;81.60
20957;DHT22;10637;47.970;7.830;2023-06-26T15:48:44;31.90;82.00
20957;DHT22;10637;47.970;7.830;2023-06-26T15:53:46;31.50;82.00
20957;DHT22;10637;47.970;7.830;2023-06-26T15:58:48;31.40;82.30
20957;DHT22;10637;47.970;7.830;2023-06-26T16:03:50;31.10;82.90
20957;DHT22;10637;47.970;7.830;2023-06-26T16:08:52;30.90;84.20
20957;DHT22;10637;47.970;7.830;2023-06-26T16:13:54;31.00;83.60
20957;DHT22;10637;47.970;7.830;2023-06-26T16:18:56;30.70;82.70
20957;DHT22;10637;47.970;7.830;2023-06-26T16:23:59;30.60;83.40
20957;DHT22;10637;47.970;7.830;2023-06-26T16:29:02;30.40;83.30
20957;DHT22;10637;47.970;7.830;2023-06-26T16:34:03;30.00;85.30
20957;DHT22;10637;47.970;7.830;2023-06-26T16:39:05;30.10;83.80
20957;DHT22;10637;47.970;7.830;2023-06-26T16:44:07;29.90;85.80
20957;DHT22;10637;47.970;7.830;2023-06-26T16:49:09;29.90;84.20
20957;DHT22;10637;47.970;7.830;2023-06-26T16:54:10;29.90;84.20
20957;DHT22;10637;47.970;7.830;2023-06-26T16:59:12;29.70;85.30
20957;DHT22;10637;47.970;7.830;2023-06-26T17:04:14;29.70;85.20
20957;DHT22;10637;47.970;7.830;2023-06-26T17:09:16;29.60;85.60
20957;DHT22;10637;47.970;7.830;2023-06-26T17:14:18;29.50;85.50
20957;DHT22;10637;47.970;7.830;2023-06-26T17:19:20;29.60;86.50
20957;DHT22;10637;47.970;7.830;2023-06-26T17:24:22;29.70;86.30
20957;DHT22;10637;47.970;7.830;2023-06-26T17:29:23;29.60;84.50
20957;DHT22;10637;47.970;7.830;2023-06-26T17:34:28;29.30;84.90
20957;DHT22;10637;47.970;7.830;2023-06-26T17:39:29;29.60;85.80
20957;DHT22;10637;47.970;7.830;2023-06-26T17:44:31;29.60;85.30
20957;DHT22;10637;47.970;7.830;2023-06-26T17:49:33;29.40;85.20
20957;DHT22;10637;47.970;7.830;2023-06-26T17:54:35;29.30;86.20
20957;DHT22;10637;47.970;7.830;2023-06-26T17:59:37;29.00;86.10
20957;DHT22;10637;47.970;7.830;2023-06-26T18:04:39;28.90;85.20
20957;DHT22;10637;47.970;7.830;2023-06-26T18:09:41;29.40;85.40
20957;DHT22;10637;47.970;7.830;2023-06-26T18:14:43;29.10;85.70
20957;DHT22;10637;47.970;7.830;2023-06-26T18:19:45;28.90;84.50
20957;DHT22;10637;47.970;7.830;2023-06-26T18:24:47;28.60;84.30
20957;DHT22;10637;47.970;7.830;2023-06-26T18:29:49;28.40;85.40
20957;DHT22;10637;47.970;7.830;2023-06-26T18:34:50;28.30;88.90
20957;DHT22;10637;47.970;7.830;2023-06-26T18:39:52;28.40;86.00
20957;DHT22;10637;47.970;7.830;2023-06-26T18:44:54;28.50;86.40
20957;DHT22;10637;47.970;7.830;2023-06-26T18:49:56;28.00;87.00
20957;DHT22;10637;47.970;7.830;2023-06-26T18:54:58;28.00;86.30
20957;DHT22;10637;47.970;7.830;2023-06-26T19:00:00;27.90;84.30
20957;DHT22;10637;47.970;7.830;2023-06-26T19:05:03;27.40;86.30
20957;DHT22;10637;47.970;7.830;2023-06-26T19:10:05;27.10;85.20
20957;DHT22;10637;47.970;7.830;2023-06-26T19:15:10;26.70;86.60
20957;DHT22;10637;47.970;7.830;2023-06-26T19:20:12;26.60;86.50
20957;DHT22;10637;47.970;7.830;2023-06-26T19:25:14;26.50;90.30
20957;DHT22;10637;47.970;7.830;2023-06-26T19:30:16;26.50;90.10
20957;DHT22;10637;47.970;7.830;2023-06-26T19:35:18;26.40;87.70
20957;DHT22;10637;47.970;7.830;2023-06-26T19:40:20;26.20;88.00
20957;DHT22;10637;47.970;7.830;2023-06-26T19:45:22;25.80;87.50
20957;DHT22;10637;47.970;7.830;2023-06-26T19:50:24;25.70;88.60
20957;DHT22;10637;47.970;7.830;2023-06-26T19:55:26;25.80;88.50
20957;DHT22;10637;47.970;7.830;2023-06-26T20:00:28;25.40;88.40
20957;DHT22;10637;47.970;7.830;2023-06-26T20:05:32;25.20;90.70
20957;DHT22;10637;47.970;7.830;2023-06-26T20:10:34;25.10;89.50
20957;DHT22;10637;47.970;7.830;2023-06-26T20:15:35;24.90;89.60
20957;DHT22;10637;47.970;7.830;2023-06-26T20:20:38;24.70;91.00
20957;DHT22;10637;47.970;7.830;2023-06-26T20:25:41;24.40;90.50
20957;DHT22;10637;47.970;7.830;2023-06-26T20:30:43;24.30;90.80
20957;DHT22;10637;47.970;7.830;2023-06-26T20:35:45;24.10;91.70
20957;DHT22;10637;47.970;7.830;2023-06-26T20:40:47;24.00;92.50
20957;DHT22;10637;47.970;7.830;2023-06-26T20:45:49;23.60;93.50
20957;DHT22;10637;47.970;7.830;2023-06-26T20:50:51;23.30;93.80
20957;DHT22;10637;47.970;7.830;2023-06-26T20:55:53;23.00;94.40
20957;DHT22;10637;47.970;7.830;2023-06-26T21:00:55;22.90;95.10
20957;DHT22;10637;47.970;7.830;2023-06-26T21:05:57;22.80;95.60
20957;DHT22;10637;47.970;7.830;2023-06-26T21:10:59;22.60;95.90
20957;DHT22;10637;47.970;7.830;2023-06-26T21:16:01;22.10;97.00
20957;DHT22;10637;47.970;7.830;2023-06-26T21:21:03;22.00;96.70
20957;DHT22;10637;47.970;7.830;2023-06-26T21:26:04;22.00;97.50
20957;DHT22;10637;47.970;7.830;2023-06-26T21:31:06;21.60;97.40
20957;DHT22;10637;47.970;7.830;2023-06-26T21:36:08;21.60;97.60
20957;DHT22;10637;47.970;7.830;2023-06-26T21:41:10;21.80;97.80
20957;DHT22;10637;47.970;7.830;2023-06-26T21:46:12;21.50;98.00
20957;DHT22;10637;47.970;7.830;2023-06-26T21:51:14;21.10;99.20
20957;DHT22;10637;47.970;7.830;2023-06-26T21:56:16;21.40;98.30
20957;DHT22;10637;47.970;7.830;2023-06-26T22:01:17;21.50;98.50
20957;DHT22;10637;47.970;7.830;2023-06-26T22:06:19;21.00;99.20
20957;DHT22;10637;47.970;7.830;2023-06-26T22:11:21;20.50;99.90
20957;DHT22;10637;47.970;7.830;2023-06-26T22:16:23;20.70;99.90
20957;DHT22;10637;47.970;7.830;2023-06-26T22:21:25;21.00;99.10
20957;DHT22;10637;47.970;7.830;2023-06-26T22:26:26;21.00;99.60
20957;DHT22;10637;47.970;7.830;2023-06-26T22:31:28;20.70;99.60
20957;DHT22;10637;47.970;7.830;2023-06-26T22:36:30;20.40;99.90
20957;DHT22;10637;47.970;7.830;2023-06-26T22:41:32;20.20;99.90
20957;DHT22;10637;47.970;7.830;2023-06-26T22:46:33;20.30;99.90
20957;DHT22;10637;47.970;7.830;2023-06-26T22:51:35;20.30;99.90
20957;DHT22;10637;47.970;7.830;2023-06-26T22:56:37;20.10;99.90
20957;DHT22;10637;47.970;7.830;2023-06-26T23:01:55;20.30;99.90
20957;DHT22;10637;47.970;7.830;2023-06-26T23:06:57;20.30;99.90
20957;DHT22;10637;47.970;7.830;2023-06-26T23:12:01;20.40;99.60
20957;DHT22;10637;47.970;7.830;2023-06-26T23:17:03;20.40;99.80
20957;DHT22;10637;47.970;7.830;2023-06-26T23:22:06;19.90;99.90
20957;DHT22;10637;47.970;7.830;2023-06-26T23:27:11;19.80;99.90
20957;DHT22;10637;47.970;7.830;2023-06-26T23:32:13;20.00;99.90
20957;DHT22;10637;47.970;7.830;2023-06-26T23:37:16;19.80;99.90
20957;DHT22;10637;47.970;7.830;2023-06-26T23:42:27;19.80;99.90
20957;DHT22;10637;47.970;7.830;2023-06-26T23:47:28;20.00;99.90
20957;DHT22;10637;47.970;7.830;2023-06-26T23:52:30;19.80;99.90
20957;DHT22;10637;47.970;7.830;2023-06-26T23:57:32;20.10;99.90
